Terminal Aerodrome Forecast
Issued by NWS

Current Version | Previous Version | Text Only | Print | Product List | Glossary Off
Versions: 1 2 3 4 5 6 7 8 9 10 11 12 13 14 15 16 17 18 19 20 21 22 23 24 25 26 27 28 29

000
FTUS41 KILN 200500
TAFLCK
TAF
KLCK 200535Z 2006/2106 16012G22KT 5SM -SHRA BR OVC022
     FM200700 18012G22KT P6SM OVC025
     FM201400 19014G26KT P6SM VCSH OVC028
      TEMPO 2014/2016 4SM -SHRA BKN020
     FM202000 24016G28KT P6SM VCSH OVC035
     FM210200 26012G20KT P6SM SCT035=

USA.gov is the U.S. government's official web portal to all federal, state and local government web resources and services.